Time,TemperatureF,DewpointF,PressureIn,WindDirection,WindDirectionDegrees,WindSpeedMPH,WindSpeedGustMPH,Humidity,HourlyPrecipIn,Conditions,Clouds,dailyrainin,SoftwareType,DateUTC
2013-01-19 00:03:00,42.7,35.3,29.81,South,170,0.0,1.0,75,0.00,,,0.00,VWS V14.01,2013-01-19 06:03:00,
2013-01-19 00:08:00,42.6,35.2,29.81,South,170,0.0,1.0,75,0.00,,,0.00,VWS V14.01,2013-01-19 06:08:00,
2013-01-19 00:13:00,42.6,35.2,29.81,South,170,0.0,2.0,75,0.00,,,0.00,VWS V14.01,2013-01-19 06:13:00,
2013-01-19 00:18:00,42.5,35.2,29.81,South,170,1.0,2.0,75,0.00,,,0.00,VWS V14.01,2013-01-19 06:18:00,
2013-01-19 00:23:00,42.6,35.2,29.81,South,170,0.0,1.0,75,0.00,,,0.00,VWS V14.01,2013-01-19 06:23:00,
2013-01-19 00:28:00,42.6,35.2,29.81,South,170,0.0,3.0,75,0.00,,,0.00,VWS V14.01,2013-01-19 06:28:00,
2013-01-19 00:33:00,42.9,35.9,29.81,South,170,0.0,3.0,76,0.00,,,0.00,VWS V14.01,2013-01-19 06:33:00,
2013-01-19 00:38:00,43.1,36.1,29.81,South,173,0.0,4.0,76,0.00,,,0.00,VWS V14.01,2013-01-19 06:38:00,
2013-01-19 00:43:00,43.1,36.1,29.81,South,173,1.0,3.0,76,0.00,,,0.00,VWS V14.01,2013-01-19 06:43:00,
2013-01-19 00:48:00,43.2,36.2,29.81,South,175,0.0,4.0,76,0.00,,,0.00,VWS V14.01,2013-01-19 06:48:00,
2013-01-19 00:53:00,43.3,36.3,29.81,South,175,0.0,5.0,76,0.00,,,0.00,VWS V14.01,2013-01-19 06:53:00,
2013-01-19 00:58:00,43.3,36.3,29.81,South,176,0.0,5.0,76,0.00,,,0.00,VWS V14.01,2013-01-19 06:58:00,
2013-01-19 01:03:00,43.2,36.2,29.81,South,176,0.0,2.0,76,0.00,,,0.00,VWS V14.01,2013-01-19 07:03:00,
2013-01-19 01:08:00,43.2,36.2,29.80,South,176,0.0,2.0,76,0.00,,,0.00,VWS V14.01,2013-01-19 07:08:00,
2013-01-19 01:13:00,43.2,36.2,29.80,South,169,1.0,5.0,76,0.00,,,0.00,VWS V14.01,2013-01-19 07:13:00,
2013-01-19 01:18:00,43.3,36.6,29.80,South,170,0.0,5.0,77,0.00,,,0.00,VWS V14.01,2013-01-19 07:18:00,
2013-01-19 01:23:00,43.3,36.6,29.80,South,169,0.0,2.0,77,0.00,,,0.00,VWS V14.01,2013-01-19 07:23:00,
2013-01-19 01:28:00,43.3,36.6,29.80,South,173,0.0,3.0,77,0.00,,,0.00,VWS V14.01,2013-01-19 07:28:00,
2013-01-19 01:33:00,43.3,36.6,29.81,South,173,0.0,2.0,77,0.00,,,0.00,VWS V14.01,2013-01-19 07:33:00,
2013-01-19 01:38:00,43.2,36.5,29.81,South,173,0.0,2.0,77,0.00,,,0.00,VWS V14.01,2013-01-19 07:38:00,
2013-01-19 01:43:00,43.2,36.5,29.80,South,172,0.0,1.0,77,0.00,,,0.00,VWS V14.01,2013-01-19 07:43:00,
2013-01-19 01:48:00,43.1,36.4,29.80,South,171,0.0,4.0,77,0.00,,,0.00,VWS V14.01,2013-01-19 07:48:00,
2013-01-19 01:53:00,43.0,36.3,29.80,South,171,0.0,1.0,77,0.00,,,0.00,VWS V14.01,2013-01-19 07:53:00,
2013-01-19 01:58:00,42.9,36.5,29.80,South,171,0.0,3.0,78,0.00,,,0.00,VWS V14.01,2013-01-19 07:58:00,
2013-01-19 02:03:00,42.8,36.4,29.79,South,171,0.0,3.0,78,0.00,,,0.00,VWS V14.01,2013-01-19 08:03:00,
2013-01-19 02:08:00,42.7,36.3,29.79,South,171,1.0,3.0,78,0.00,,,0.00,VWS V14.01,2013-01-19 08:08:00,
2013-01-19 02:13:00,42.6,36.2,29.79,South,171,0.0,2.0,78,0.00,,,0.00,VWS V14.01,2013-01-19 08:13:00,
2013-01-19 02:18:00,42.5,36.1,29.79,South,171,1.0,4.0,78,0.00,,,0.00,VWS V14.01,2013-01-19 08:18:00,
2013-01-19 02:23:00,42.5,36.1,29.79,South,171,0.0,1.0,78,0.00,,,0.00,VWS V14.01,2013-01-19 08:23:00,
2013-01-19 02:28:00,42.4,36.0,29.79,South,171,0.0,2.0,78,0.00,,,0.00,VWS V14.01,2013-01-19 08:28:00,
2013-01-19 02:33:00,42.3,36.3,29.78,SSE,162,0.0,4.0,79,0.00,,,0.00,VWS V14.01,2013-01-19 08:33:00,
2013-01-19 02:38:00,42.2,36.2,29.78,SSE,162,2.0,4.0,79,0.00,,,0.00,VWS V14.01,2013-01-19 08:38:00,
2013-01-19 02:43:00,42.2,36.2,29.78,SSE,165,1.0,2.0,79,0.00,,,0.00,VWS V14.01,2013-01-19 08:43:00,
2013-01-19 02:48:00,42.2,36.2,29.78,SSE,165,0.0,2.0,79,0.00,,,0.00,VWS V14.01,2013-01-19 08:48:00,
2013-01-19 02:53:00,42.1,36.1,29.78,SSE,165,1.0,1.0,79,0.00,,,0.00,VWS V14.01,2013-01-19 08:53:00,
2013-01-19 02:58:00,42.0,36.0,29.78,SSE,166,1.0,2.0,79,0.00,,,0.00,VWS V14.01,2013-01-19 08:58:00,
2013-01-19 03:03:00,42.0,36.0,29.78,SSE,168,2.0,4.0,79,0.00,,,0.00,VWS V14.01,2013-01-19 09:03:00,
2013-01-19 03:08:00,41.9,35.9,29.78,SSE,168,0.0,4.0,79,0.00,,,0.00,VWS V14.01,2013-01-19 09:08:00,
2013-01-19 03:13:00,41.9,35.9,29.77,SSE,168,1.0,2.0,79,0.00,,,0.00,VWS V14.01,2013-01-19 09:13:00,
2013-01-19 03:18:00,41.8,36.1,29.77,SSE,168,0.0,2.0,80,0.00,,,0.00,VWS V14.01,2013-01-19 09:18:00,
2013-01-19 03:23:00,41.7,36.0,29.78,SSE,168,0.0,2.0,80,0.00,,,0.00,VWS V14.01,2013-01-19 09:23:00,
2013-01-19 03:28:00,41.6,35.9,29.78,South,169,1.0,2.0,80,0.00,,,0.00,VWS V14.01,2013-01-19 09:28:00,
2013-01-19 03:33:00,41.6,35.9,29.77,SSE,168,0.0,2.0,80,0.00,,,0.00,VWS V14.01,2013-01-19 09:33:00,
2013-01-19 03:38:00,41.5,35.8,29.77,SSE,168,0.0,2.0,80,0.00,,,0.00,VWS V14.01,2013-01-19 09:38:00,
2013-01-19 03:43:00,41.4,35.4,29.78,SSE,168,0.0,3.0,79,0.00,,,0.00,VWS V14.01,2013-01-19 09:43:00,
2013-01-19 03:48:00,41.4,35.4,29.77,SSE,168,0.0,3.0,79,0.00,,,0.00,VWS V14.01,2013-01-19 09:48:00,
2013-01-19 03:53:00,41.2,35.2,29.77,SSE,168,0.0,1.0,79,0.00,,,0.00,VWS V14.01,2013-01-19 09:53:00,
2013-01-19 03:58:00,41.1,35.1,29.77,SSE,168,0.0,1.0,79,0.00,,,0.00,VWS V14.01,2013-01-19 09:58:00,
2013-01-19 04:03:00,41.0,35.0,29.77,SSE,168,1.0,1.0,79,0.00,,,0.00,VWS V14.01,2013-01-19 10:03:00,
2013-01-19 04:08:00,40.9,35.2,29.77,SSE,168,0.0,1.0,80,0.00,,,0.00,VWS V14.01,2013-01-19 10:08:00,
2013-01-19 04:13:00,40.7,35.0,29.76,SSE,168,0.0,1.0,80,0.00,,,0.00,VWS V14.01,2013-01-19 10:13:00,
2013-01-19 04:18:00,40.7,35.0,29.76,SSE,168,0.0,1.0,80,0.00,,,0.00,VWS V14.01,2013-01-19 10:18:00,
2013-01-19 04:23:00,40.6,34.9,29.76,SSE,168,0.0,0.0,80,0.00,,,0.00,VWS V14.01,2013-01-19 10:23:00,
2013-01-19 04:28:00,40.6,34.6,29.76,SSE,168,0.0,2.0,79,0.00,,,0.00,VWS V14.01,2013-01-19 10:28:00,
2013-01-19 04:33:00,40.5,34.5,29.76,SSE,168,0.0,2.0,79,0.00,,,0.00,VWS V14.01,2013-01-19 10:33:00,
2013-01-19 04:38:00,40.4,34.4,29.76,SSE,168,0.0,2.0,79,0.00,,,0.00,VWS V14.01,2013-01-19 10:38:00,
2013-01-19 04:43:00,40.4,34.4,29.76,SSE,168,0.0,0.0,79,0.00,,,0.00,VWS V14.01,2013-01-19 10:43:00,
2013-01-19 04:48:00,40.3,34.3,29.76,SSE,168,0.0,1.0,79,0.00,,,0.00,VWS V14.01,2013-01-19 10:48:00,
2013-01-19 04:53:00,40.2,34.2,29.76,SSE,168,0.0,1.0,79,0.00,,,0.00,VWS V14.01,2013-01-19 10:53:00,
2013-01-19 04:58:00,40.1,33.8,29.76,SSE,168,0.0,1.0,78,0.00,,,0.00,VWS V14.01,2013-01-19 10:58:00,
2013-01-19 05:03:00,40.1,33.8,29.76,SSE,168,0.0,2.0,78,0.00,,,0.00,VWS V14.01,2013-01-19 11:03:00,
2013-01-19 05:08:00,40.0,33.7,29.76,SSE,168,0.0,2.0,78,0.00,,,0.00,VWS V14.01,2013-01-19 11:08:00,
2013-01-19 05:13:00,40.0,33.7,29.76,SSE,168,0.0,1.0,78,0.00,,,0.00,VWS V14.01,2013-01-19 11:13:00,
2013-01-19 06:47:00,38.3,32.0,29.76,SSE,168,0.0,0.0,78,0.00,,,0.00,VWS V14.01,2013-01-19 12:47:00,
2013-01-19 06:48:00,38.3,32.0,29.76,SSE,168,0.0,0.0,78,0.00,,,0.00,VWS V14.01,2013-01-19 12:48:00,
2013-01-19 06:53:00,38.1,31.9,29.76,SSE,168,0.0,0.0,78,0.00,,,0.00,VWS V14.01,2013-01-19 12:53:00,
2013-01-19 06:58:00,38.0,31.8,29.76,SSE,168,0.0,0.0,78,0.00,,,0.00,VWS V14.01,2013-01-19 12:58:00,
2013-01-19 07:03:00,37.9,31.7,29.76,SSE,168,0.0,0.0,78,0.00,,,0.00,VWS V14.01,2013-01-19 13:03:00,
2013-01-19 07:08:00,37.8,31.6,29.77,SSE,168,0.0,0.0,78,0.00,,,0.00,VWS V14.01,2013-01-19 13:08:00,
2013-01-19 07:13:00,37.7,31.5,29.77,SSE,168,0.0,0.0,78,0.00,,,0.00,VWS V14.01,2013-01-19 13:13:00,
2013-01-19 07:18:00,37.7,31.8,29.77,SSE,168,0.0,1.0,79,0.00,,,0.00,VWS V14.01,2013-01-19 13:18:00,
2013-01-19 07:23:00,37.6,31.7,29.77,SSE,168,0.0,0.0,79,0.00,,,0.00,VWS V14.01,2013-01-19 13:23:00,
2013-01-19 07:28:00,37.5,31.6,29.77,SSE,168,0.0,0.0,79,0.00,,,0.00,VWS V14.01,2013-01-19 13:28:00,
2013-01-19 07:33:00,37.4,31.5,29.77,SSE,168,0.0,0.0,79,0.00,,,0.00,VWS V14.01,2013-01-19 13:33:00,
2013-01-19 07:38:00,37.4,31.5,29.77,SSE,168,0.0,0.0,79,0.00,,,0.00,VWS V14.01,2013-01-19 13:38:00,
2013-01-19 07:43:00,37.5,31.6,29.77,SSE,168,0.0,0.0,79,0.00,,,0.00,VWS V14.01,2013-01-19 13:43:00,
2013-01-19 07:48:00,37.5,31.6,29.77,SSE,168,0.0,1.0,79,0.00,,,0.00,VWS V14.01,2013-01-19 13:48:00,
2013-01-19 07:53:00,37.5,31.6,29.77,SSE,168,0.0,0.0,79,0.00,,,0.00,VWS V14.01,2013-01-19 13:53:00,
2013-01-19 07:58:00,37.7,31.8,29.77,SSE,168,0.0,2.0,79,0.00,,,0.00,VWS V14.01,2013-01-19 13:58:00,
2013-01-19 08:03:00,37.8,31.9,29.78,SSE,168,0.0,0.0,79,0.00,,,0.00,VWS V14.01,2013-01-19 14:03:00,
2013-01-19 08:08:00,38.0,32.1,29.78,SSE,168,0.0,1.0,79,0.00,,,0.00,VWS V14.01,2013-01-19 14:08:00,
2013-01-19 08:13:00,38.3,32.4,29.78,SSE,168,0.0,0.0,79,0.00,,,0.00,VWS V14.01,2013-01-19 14:13:00,
2013-01-19 08:18:00,38.6,32.7,29.78,South,177,1.0,3.0,79,0.00,,,0.00,VWS V14.01,2013-01-19 14:18:00,
2013-01-19 08:23:00,39.0,32.7,29.78,South,177,1.0,1.0,78,0.00,,,0.00,VWS V14.01,2013-01-19 14:23:00,
2013-01-19 08:28:00,39.3,33.0,29.78,South,177,0.0,2.0,78,0.00,,,0.00,VWS V14.01,2013-01-19 14:28:00,
2013-01-19 08:33:00,39.7,33.1,29.78,South,177,0.0,3.0,77,0.00,,,0.00,VWS V14.01,2013-01-19 14:33:00,
2013-01-19 08:38:00,40.3,33.7,29.78,South,176,0.0,3.0,77,0.00,,,0.00,VWS V14.01,2013-01-19 14:38:00,
2013-01-19 08:43:00,41.0,33.7,29.78,South,178,0.0,2.0,75,0.00,,,0.00,VWS V14.01,2013-01-19 14:43:00,
2013-01-19 08:48:00,41.4,33.4,29.78,South,175,4.0,4.0,73,0.00,,,0.00,VWS V14.01,2013-01-19 14:48:00,
2013-01-19 08:53:00,41.8,33.8,29.78,South,178,0.0,5.0,73,0.00,,,0.00,VWS V14.01,2013-01-19 14:53:00,
2013-01-19 08:58:00,42.4,34.4,29.79,South,178,2.0,5.0,73,0.00,,,0.00,VWS V14.01,2013-01-19 14:58:00,
2013-01-19 09:03:00,42.7,34.3,29.79,SSE,167,0.0,5.0,72,0.00,,,0.00,VWS V14.01,2013-01-19 15:03:00,
2013-01-19 09:08:00,43.0,35.0,29.79,South,171,1.0,6.0,73,0.00,,,0.00,VWS V14.01,2013-01-19 15:08:00,
2013-01-19 09:13:00,43.5,35.4,29.79,South,171,1.0,3.0,73,0.00,,,0.00,VWS V14.01,2013-01-19 15:13:00,
2013-01-19 09:18:00,44.0,35.9,29.80,South,171,1.0,3.0,73,0.00,,,0.00,VWS V14.01,2013-01-19 15:18:00,
2013-01-19 09:23:00,44.1,35.7,29.80,South,174,2.0,4.0,72,0.00,,,0.00,VWS V14.01,2013-01-19 15:23:00,
2013-01-19 09:28:00,44.3,35.5,29.80,South,171,2.0,6.0,71,0.00,,,0.00,VWS V14.01,2013-01-19 15:28:00,
2013-01-19 09:33:00,44.8,36.0,29.80,South,171,1.0,4.0,71,0.00,,,0.00,VWS V14.01,2013-01-19 15:33:00,
2013-01-19 09:38:00,45.3,36.5,29.81,South,171,2.0,4.0,71,0.00,,,0.00,VWS V14.01,2013-01-19 15:38:00,
2013-01-19 09:43:00,45.8,37.0,29.81,South,170,1.0,5.0,71,0.00,,,0.00,VWS V14.01,2013-01-19 15:43:00,
2013-01-19 09:48:00,46.5,37.6,29.81,South,170,0.0,5.0,71,0.00,,,0.00,VWS V14.01,2013-01-19 15:48:00,
2013-01-19 09:53:00,47.4,37.8,29.81,South,170,0.0,3.0,69,0.00,,,0.00,VWS V14.01,2013-01-19 15:53:00,
2013-01-19 09:58:00,47.9,38.6,29.81,South,169,1.0,3.0,70,0.00,,,0.00,VWS V14.01,2013-01-19 15:58:00,
2013-01-19 10:03:00,48.5,39.5,29.81,South,169,2.0,4.0,71,0.00,,,0.00,VWS V14.01,2013-01-19 16:03:00,
2013-01-19 10:08:00,49.7,40.0,29.82,SSW,193,2.0,7.0,69,0.00,,,0.00,VWS V14.01,2013-01-19 16:08:00,
2013-01-19 10:13:00,50.3,40.2,29.82,SSW,195,3.0,8.0,68,0.00,,,0.00,VWS V14.01,2013-01-19 16:13:00,
2013-01-19 10:18:00,50.4,40.6,29.82,South,171,4.0,8.0,69,0.00,,,0.00,VWS V14.01,2013-01-19 16:18:00,
2013-01-19 10:23:00,50.4,40.6,29.82,South,186,2.0,8.0,69,0.00,,,0.00,VWS V14.01,2013-01-19 16:23:00,
2013-01-19 10:28:00,50.7,40.9,29.81,South,184,4.0,8.0,69,0.00,,,0.00,VWS V14.01,2013-01-19 16:28:00,
2013-01-19 10:33:00,50.4,40.6,29.82,South,187,1.0,5.0,69,0.00,,,0.00,VWS V14.01,2013-01-19 16:33:00,
2013-01-19 10:38:00,50.3,40.9,29.82,South,173,0.0,5.0,70,0.00,,,0.00,VWS V14.01,2013-01-19 16:38:00,
2013-01-19 10:43:00,50.5,41.5,29.81,SSW,197,2.0,6.0,71,0.00,,,0.00,VWS V14.01,2013-01-19 16:43:00,
2013-01-19 10:48:00,50.9,41.8,29.81,South,173,0.0,6.0,71,0.00,,,0.00,VWS V14.01,2013-01-19 16:48:00,
2013-01-19 10:53:00,51.5,42.0,29.81,SE,132,6.0,6.0,70,0.00,,,0.00,VWS V14.01,2013-01-19 16:53:00,
2013-01-19 10:58:00,52.0,42.9,29.80,South,171,4.0,6.0,71,0.00,,,0.00,VWS V14.01,2013-01-19 16:58:00,
2013-01-19 11:03:00,52.8,43.3,29.80,SW,217,2.0,9.0,70,0.00,,,0.00,VWS V14.01,2013-01-19 17:03:00,
2013-01-19 11:08:00,53.8,43.9,29.80,South,187,1.0,9.0,69,0.00,,,0.00,VWS V14.01,2013-01-19 17:08:00,
2013-01-19 11:14:00,55.2,44.8,29.80,SW,221,3.0,6.0,68,0.00,,,0.00,VWS V14.01,2013-01-19 17:14:00,
2013-01-19 11:19:00,55.9,45.1,29.80,SW,223,1.0,6.0,67,0.00,,,0.00,VWS V14.01,2013-01-19 17:19:00,
2013-01-19 11:24:00,55.2,44.0,29.80,South,175,2.0,8.0,66,0.00,,,0.00,VWS V14.01,2013-01-19 17:24:00,
2013-01-19 11:29:00,55.1,44.3,29.79,SSE,167,0.0,8.0,67,0.00,,,0.00,VWS V14.01,2013-01-19 17:29:00,
2013-01-19 11:34:00,54.5,44.2,29.79,SSE,161,2.0,4.0,68,0.00,,,0.00,VWS V14.01,2013-01-19 17:34:00,
2013-01-19 11:39:00,54.2,44.3,29.78,SSE,168,0.0,4.0,69,0.00,,,0.00,VWS V14.01,2013-01-19 17:39:00,
2013-01-19 11:44:00,55.4,45.8,29.78,SSE,155,4.0,6.0,70,0.00,,,0.00,VWS V14.01,2013-01-19 17:44:00,
2013-01-19 11:50:00,56.0,45.2,29.77,SSE,158,0.0,6.0,67,0.00,,,0.00,VWS V14.01,2013-01-19 17:50:00,
2013-01-19 11:55:00,56.7,45.9,29.77,SSW,213,3.0,4.0,67,0.00,,,0.00,VWS V14.01,2013-01-19 17:55:00,
2013-01-19 12:00:00,57.6,46.3,29.77,SSE,165,0.0,7.0,66,0.00,,,0.00,VWS V14.01,2013-01-19 18:00:00,
2013-01-19 12:05:00,58.1,46.4,29.76,SE,143,3.0,6.0,65,0.00,,,0.00,VWS V14.01,2013-01-19 18:05:00,
2013-01-19 12:10:00,58.8,46.7,29.76,South,176,2.0,6.0,64,0.00,,,0.00,VWS V14.01,2013-01-19 18:10:00,
2013-01-19 12:15:00,59.4,46.8,29.75,SSW,211,4.0,7.0,63,0.00,,,0.00,VWS V14.01,2013-01-19 18:15:00,
2013-01-19 12:20:00,59.5,46.5,29.75,South,182,4.0,7.0,62,0.00,,,0.00,VWS V14.01,2013-01-19 18:20:00,
2013-01-19 12:25:00,60.0,47.4,29.74,South,174,0.0,3.0,63,0.00,,,0.00,VWS V14.01,2013-01-19 18:25:00,
2013-01-19 12:30:00,60.9,47.4,29.74,South,175,1.0,4.0,61,0.00,,,0.00,VWS V14.01,2013-01-19 18:30:00,
2013-01-19 12:35:00,61.3,48.2,29.74,South,190,3.0,5.0,62,0.00,,,0.00,VWS V14.01,2013-01-19 18:35:00,
2013-01-19 12:40:00,61.0,48.8,29.73,South,186,0.0,6.0,64,0.00,,,0.00,VWS V14.01,2013-01-19 18:40:00,
2013-01-19 12:45:00,61.8,49.1,29.73,South,175,3.0,7.0,63,0.00,,,0.00,VWS V14.01,2013-01-19 18:45:00,
2013-01-19 12:50:00,61.4,47.8,29.72,SW,232,1.0,7.0,61,0.00,,,0.00,VWS V14.01,2013-01-19 18:50:00,
2013-01-19 12:55:00,61.9,47.9,29.72,SW,231,4.0,5.0,60,0.00,,,0.00,VWS V14.01,2013-01-19 18:55:00,
2013-01-19 13:00:00,62.3,48.2,29.71,South,169,3.0,6.0,60,0.00,,,0.00,VWS V14.01,2013-01-19 19:00:00,
2013-01-19 13:05:00,62.4,48.3,29.71,SW,220,1.0,9.0,60,0.00,,,0.00,VWS V14.01,2013-01-19 19:05:00,
2013-01-19 13:10:00,62.2,47.3,29.71,South,188,5.0,7.0,58,0.00,,,0.00,VWS V14.01,2013-01-19 19:10:00,
2013-01-19 13:15:00,61.6,47.2,29.71,SSW,207,2.0,8.0,59,0.00,,,0.00,VWS V14.01,2013-01-19 19:15:00,
2013-01-19 13:21:00,60.5,47.0,29.70,SSW,210,2.0,2.0,61,0.00,,,0.00,VWS V14.01,2013-01-19 19:21:00,
2013-01-19 13:26:00,60.9,47.4,29.70,South,179,0.0,4.0,61,0.00,,,0.00,VWS V14.01,2013-01-19 19:26:00,
2013-01-19 13:32:00,61.4,46.5,29.70,South,173,0.0,7.0,58,0.00,,,0.00,VWS V14.01,2013-01-19 19:32:00,
2013-01-19 13:37:00,61.3,46.9,29.70,South,173,0.0,7.0,59,0.00,,,0.00,VWS V14.01,2013-01-19 19:37:00,
2013-01-19 13:42:00,62.4,47.9,29.69,SW,232,0.0,4.0,59,0.00,,,0.00,VWS V14.01,2013-01-19 19:42:00,
2013-01-19 13:47:00,63.5,47.5,29.69,WSW,246,4.0,7.0,56,0.00,,,0.00,VWS V14.01,2013-01-19 19:47:00,
2013-01-19 13:52:00,63.6,47.2,29.69,South,188,4.0,4.0,55,0.00,,,0.00,VWS V14.01,2013-01-19 19:52:00,
2013-01-19 13:57:00,63.2,46.8,29.69,SSE,164,2.0,5.0,55,0.00,,,0.00,VWS V14.01,2013-01-19 19:57:00,
2013-01-19 14:02:00,64.2,47.7,29.68,SW,214,0.0,3.0,55,0.00,,,0.00,VWS V14.01,2013-01-19 20:02:00,
2013-01-19 14:08:00,64.7,47.2,29.68,SE,139,1.0,7.0,53,0.00,,,0.00,VWS V14.01,2013-01-19 20:08:00,
2013-01-19 14:13:00,64.7,47.7,29.68,SSW,196,2.0,4.0,54,0.00,,,0.00,VWS V14.01,2013-01-19 20:13:00,
2013-01-19 14:18:00,65.2,47.2,29.68,South,178,3.0,6.0,52,0.00,,,0.00,VWS V14.01,2013-01-19 20:18:00,
2013-01-19 14:23:00,64.8,48.3,29.67,South,183,3.0,7.0,55,0.00,,,0.00,VWS V14.01,2013-01-19 20:23:00,
2013-01-19 14:28:00,64.0,46.5,29.67,South,186,3.0,9.0,53,0.00,,,0.00,VWS V14.01,2013-01-19 20:28:00,
2013-01-19 14:33:00,63.7,47.2,29.67,SSE,162,4.0,5.0,55,0.00,,,0.00,VWS V14.01,2013-01-19 20:33:00,
2013-01-19 14:38:00,64.1,48.1,29.67,SW,220,0.0,9.0,56,0.00,,,0.00,VWS V14.01,2013-01-19 20:38:00,
2013-01-19 14:43:00,64.5,47.5,29.67,SSW,206,3.0,6.0,54,0.00,,,0.00,VWS V14.01,2013-01-19 20:43:00,
2013-01-19 14:48:00,63.8,46.8,29.67,SW,232,3.0,10.0,54,0.00,,,0.00,VWS V14.01,2013-01-19 20:48:00,
2013-01-19 14:53:00,63.3,46.9,29.67,SSE,166,1.0,4.0,55,0.00,,,0.00,VWS V14.01,2013-01-19 20:53:00,
2013-01-19 14:58:00,62.7,46.3,29.66,SSW,196,1.0,7.0,55,0.00,,,0.00,VWS V14.01,2013-01-19 20:58:00,
2013-01-19 15:03:00,62.7,46.8,29.67,SSW,211,0.0,2.0,56,0.00,,,0.00,VWS V14.01,2013-01-19 21:03:00,
2013-01-19 15:08:00,62.7,46.8,29.67,South,185,0.0,6.0,56,0.00,,,0.00,VWS V14.01,2013-01-19 21:08:00,
2013-01-19 15:13:00,62.6,46.2,29.67,SW,221,0.0,5.0,55,0.00,,,0.00,VWS V14.01,2013-01-19 21:13:00,
2013-01-19 15:18:00,62.9,47.0,29.67,South,180,1.0,5.0,56,0.00,,,0.00,VWS V14.01,2013-01-19 21:18:00,
2013-01-19 15:23:00,63.0,47.1,29.67,SW,215,5.0,5.0,56,0.00,,,0.00,VWS V14.01,2013-01-19 21:23:00,
2013-01-19 15:28:00,62.6,46.7,29.67,SSW,192,2.0,6.0,56,0.00,,,0.00,VWS V14.01,2013-01-19 21:28:00,
2013-01-19 15:33:00,62.7,46.3,29.67,SSW,192,2.0,4.0,55,0.00,,,0.00,VWS V14.01,2013-01-19 21:33:00,
2013-01-19 15:38:00,62.5,47.1,29.66,South,182,1.0,4.0,57,0.00,,,0.00,VWS V14.01,2013-01-19 21:38:00,
2013-01-19 15:44:00,62.4,46.5,29.67,South,180,1.0,4.0,56,0.00,,,0.00,VWS V14.01,2013-01-19 21:44:00,
2013-01-19 15:49:00,62.7,46.3,29.67,SW,216,0.0,4.0,55,0.00,,,0.00,VWS V14.01,2013-01-19 21:49:00,
2013-01-19 15:54:00,62.6,46.7,29.67,SSW,205,1.0,2.0,56,0.00,,,0.00,VWS V14.01,2013-01-19 21:54:00,
2013-01-19 15:59:00,62.6,46.2,29.67,SW,215,0.0,5.0,55,0.00,,,0.00,VWS V14.01,2013-01-19 21:59:00,
2013-01-19 16:04:00,62.6,45.7,29.66,SW,215,0.0,1.0,54,0.00,,,0.00,VWS V14.01,2013-01-19 22:04:00,
2013-01-19 16:09:00,62.7,46.3,29.66,SSW,212,0.0,2.0,55,0.00,,,0.00,VWS V14.01,2013-01-19 22:09:00,
2013-01-19 16:14:00,62.9,46.0,29.66,SSW,195,0.0,4.0,54,0.00,,,0.00,VWS V14.01,2013-01-19 22:14:00,
2013-01-19 16:19:00,63.4,46.5,29.66,South,186,0.0,4.0,54,0.00,,,0.00,VWS V14.01,2013-01-19 22:19:00,
2013-01-19 16:24:00,63.0,45.6,29.66,South,184,0.0,4.0,53,0.00,,,0.00,VWS V14.01,2013-01-19 22:24:00,
2013-01-19 16:30:00,62.9,46.0,29.67,SSW,194,0.0,4.0,54,0.00,,,0.00,VWS V14.01,2013-01-19 22:30:00,
2013-01-19 16:35:00,62.8,45.9,29.67,South,175,1.0,5.0,54,0.00,,,0.00,VWS V14.01,2013-01-19 22:35:00,
2013-01-19 16:40:00,62.7,46.3,29.67,South,175,0.0,5.0,55,0.00,,,0.00,VWS V14.01,2013-01-19 22:40:00,
2013-01-19 16:45:00,62.4,46.0,29.66,South,175,0.0,1.0,55,0.00,,,0.00,VWS V14.01,2013-01-19 22:45:00,
2013-01-19 16:50:00,62.1,45.8,29.67,South,175,0.0,2.0,55,0.00,,,0.00,VWS V14.01,2013-01-19 22:50:00,
2013-01-19 16:55:00,61.9,45.6,29.67,South,175,0.0,1.0,55,0.00,,,0.00,VWS V14.01,2013-01-19 22:55:00,
2013-01-19 17:00:00,61.8,46.0,29.67,South,175,0.0,2.0,56,0.00,,,0.00,VWS V14.01,2013-01-19 23:00:00,
2013-01-19 17:05:00,61.8,46.0,29.67,South,175,0.0,0.0,56,0.00,,,0.00,VWS V14.01,2013-01-19 23:05:00,
2013-01-19 17:10:00,61.7,45.9,29.67,South,175,0.0,0.0,56,0.00,,,0.00,VWS V14.01,2013-01-19 23:10:00,
2013-01-19 17:15:00,61.6,46.2,29.67,South,175,0.0,0.0,57,0.00,,,0.00,VWS V14.01,2013-01-19 23:15:00,
2013-01-19 17:20:00,61.5,46.1,29.67,South,175,0.0,0.0,57,0.00,,,0.00,VWS V14.01,2013-01-19 23:20:00,
2013-01-19 17:25:00,61.4,46.0,29.67,South,175,0.0,0.0,57,0.00,,,0.00,VWS V14.01,2013-01-19 23:25:00,
2013-01-19 17:30:00,61.3,46.4,29.67,South,175,0.0,0.0,58,0.00,,,0.00,VWS V14.01,2013-01-19 23:30:00,
2013-01-19 17:35:00,61.1,46.2,29.67,South,175,0.0,0.0,58,0.00,,,0.00,VWS V14.01,2013-01-19 23:35:00,
2013-01-19 17:41:00,60.8,46.0,29.67,South,175,0.0,0.0,58,0.00,,,0.00,VWS V14.01,2013-01-19 23:41:00,
2013-01-19 17:46:00,60.4,45.6,29.67,South,175,0.0,1.0,58,0.00,,,0.00,VWS V14.01,2013-01-19 23:46:00,
2013-01-19 17:51:00,59.8,45.5,29.67,South,175,0.0,0.0,59,0.00,,,0.00,VWS V14.01,2013-01-19 23:51:00,
2013-01-19 17:56:00,59.0,46.0,29.67,South,175,0.0,1.0,62,0.00,,,0.00,VWS V14.01,2013-01-19 23:56:00,
2013-01-19 18:01:00,58.4,45.9,29.67,South,175,0.0,0.0,63,0.00,,,0.00,VWS V14.01,2013-01-20 00:01:00,
2013-01-19 18:06:00,58.0,45.9,29.67,South,175,0.0,1.0,64,0.00,,,0.00,VWS V14.01,2013-01-20 00:06:00,
2013-01-19 18:11:00,57.6,46.3,29.67,South,175,0.0,0.0,66,0.00,,,0.00,VWS V14.01,2013-01-20 00:11:00,
2013-01-19 18:16:00,57.3,46.0,29.67,South,175,0.0,0.0,66,0.00,,,0.00,VWS V14.01,2013-01-20 00:16:00,
2013-01-19 18:21:00,57.1,45.9,29.67,South,175,0.0,0.0,66,0.00,,,0.00,VWS V14.01,2013-01-20 00:21:00,
2013-01-19 18:27:00,56.8,46.0,29.67,South,175,0.0,0.0,67,0.00,,,0.00,VWS V14.01,2013-01-20 00:27:00,
2013-01-19 18:32:00,56.4,45.6,29.67,South,175,0.0,0.0,67,0.00,,,0.00,VWS V14.01,2013-01-20 00:32:00,
2013-01-19 18:37:00,56.2,45.8,29.67,South,175,0.0,0.0,68,0.00,,,0.00,VWS V14.01,2013-01-20 00:37:00,
2013-01-19 18:42:00,56.0,46.0,29.67,South,175,0.0,0.0,69,0.00,,,0.00,VWS V14.01,2013-01-20 00:42:00,
2013-01-19 18:47:00,55.6,45.6,29.67,South,175,0.0,0.0,69,0.00,,,0.00,VWS V14.01,2013-01-20 00:47:00,
2013-01-19 18:52:00,55.3,45.3,29.67,South,175,0.0,0.0,69,0.00,,,0.00,VWS V14.01,2013-01-20 00:52:00,
2013-01-19 18:57:00,55.0,45.4,29.68,South,175,0.0,0.0,70,0.00,,,0.00,VWS V14.01,2013-01-20 00:57:00,
2013-01-19 19:02:00,54.8,45.2,29.68,South,175,0.0,0.0,70,0.00,,,0.00,VWS V14.01,2013-01-20 01:02:00,
2013-01-19 19:07:00,54.5,44.9,29.68,South,175,0.0,0.0,70,0.00,,,0.00,VWS V14.01,2013-01-20 01:07:00,
2013-01-19 19:12:00,54.2,45.0,29.68,South,175,0.0,0.0,71,0.00,,,0.00,VWS V14.01,2013-01-20 01:12:00,
2013-01-19 19:17:00,53.9,45.1,29.68,South,175,0.0,0.0,72,0.00,,,0.00,VWS V14.01,2013-01-20 01:17:00,
2013-01-19 19:22:00,53.6,44.8,29.68,South,175,0.0,0.0,72,0.00,,,0.00,VWS V14.01,2013-01-20 01:22:00,
2013-01-19 19:27:00,53.3,44.9,29.68,South,175,0.0,0.0,73,0.00,,,0.00,VWS V14.01,2013-01-20 01:27:00,
2013-01-19 19:33:00,53.0,45.0,29.68,South,175,0.0,0.0,74,0.00,,,0.00,VWS V14.01,2013-01-20 01:33:00,
2013-01-19 19:39:00,52.8,44.8,29.68,South,175,0.0,0.0,74,0.00,,,0.00,VWS V14.01,2013-01-20 01:39:00,
2013-01-19 19:44:00,52.6,44.6,29.69,South,175,0.0,0.0,74,0.00,,,0.00,VWS V14.01,2013-01-20 01:44:00,
2013-01-19 19:49:00,52.4,44.7,29.68,South,175,0.0,1.0,75,0.00,,,0.00,VWS V14.01,2013-01-20 01:49:00,
2013-01-19 19:54:00,52.1,44.8,29.68,South,175,0.0,1.0,76,0.00,,,0.00,VWS V14.01,2013-01-20 01:54:00,
2013-01-19 19:59:00,51.8,44.5,29.68,South,175,0.0,1.0,76,0.00,,,0.00,VWS V14.01,2013-01-20 01:59:00,
2013-01-19 20:04:00,51.6,44.6,29.68,South,175,0.0,0.0,77,0.00,,,0.00,VWS V14.01,2013-01-20 02:04:00,
2013-01-19 20:09:00,51.4,44.4,29.68,South,175,0.0,0.0,77,0.00,,,0.00,VWS V14.01,2013-01-20 02:09:00,
2013-01-19 20:14:00,51.2,44.2,29.68,South,175,0.0,0.0,77,0.00,,,0.00,VWS V14.01,2013-01-20 02:14:00,
2013-01-19 20:19:00,51.0,44.4,29.68,South,175,0.0,0.0,78,0.00,,,0.00,VWS V14.01,2013-01-20 02:19:00,
2013-01-19 20:24:00,50.9,44.3,29.68,South,175,0.0,0.0,78,0.00,,,0.00,VWS V14.01,2013-01-20 02:24:00,
2013-01-19 20:29:00,50.7,44.1,29.69,South,175,0.0,0.0,78,0.00,,,0.00,VWS V14.01,2013-01-20 02:29:00,
2013-01-19 20:35:00,50.5,43.9,29.69,South,175,0.0,0.0,78,0.00,,,0.00,VWS V14.01,2013-01-20 02:35:00,
2013-01-19 20:40:00,50.3,43.7,29.69,South,175,0.0,0.0,78,0.00,,,0.00,VWS V14.01,2013-01-20 02:40:00,
2013-01-19 20:45:00,50.1,43.5,29.69,South,175,0.0,0.0,78,0.00,,,0.00,VWS V14.01,2013-01-20 02:45:00,
2013-01-19 20:50:00,49.8,43.6,29.69,South,175,0.0,0.0,79,0.00,,,0.00,VWS V14.01,2013-01-20 02:50:00,
2013-01-19 20:55:00,49.6,43.4,29.69,South,175,0.0,0.0,79,0.00,,,0.00,VWS V14.01,2013-01-20 02:55:00,
2013-01-19 21:00:00,49.3,43.1,29.69,South,175,0.0,0.0,79,0.00,,,0.00,VWS V14.01,2013-01-20 03:00:00,
2013-01-19 21:05:00,49.1,43.2,29.69,South,175,0.0,0.0,80,0.00,,,0.00,VWS V14.01,2013-01-20 03:05:00,
2013-01-19 21:10:00,48.8,42.9,29.70,South,175,0.0,0.0,80,0.00,,,0.00,VWS V14.01,2013-01-20 03:10:00,
2013-01-19 21:15:00,48.6,43.0,29.70,South,175,0.0,0.0,81,0.00,,,0.00,VWS V14.01,2013-01-20 03:15:00,
2013-01-19 21:20:00,48.4,43.2,29.70,South,175,0.0,0.0,82,0.00,,,0.00,VWS V14.01,2013-01-20 03:20:00,
2013-01-19 21:25:00,48.2,43.0,29.70,South,175,0.0,0.0,82,0.00,,,0.00,VWS V14.01,2013-01-20 03:25:00,
2013-01-19 21:30:00,48.1,42.9,29.70,South,175,0.0,0.0,82,0.00,,,0.00,VWS V14.01,2013-01-20 03:30:00,
2013-01-19 21:35:00,47.9,42.7,29.71,South,175,0.0,0.0,82,0.00,,,0.00,VWS V14.01,2013-01-20 03:35:00,
2013-01-19 21:40:00,47.8,42.9,29.71,South,175,0.0,0.0,83,0.00,,,0.00,VWS V14.01,2013-01-20 03:40:00,
2013-01-19 21:45:00,47.7,42.8,29.71,South,175,0.0,0.0,83,0.00,,,0.00,VWS V14.01,2013-01-20 03:45:00,
2013-01-19 21:50:00,47.6,42.7,29.71,South,175,0.0,0.0,83,0.00,,,0.00,VWS V14.01,2013-01-20 03:50:00,
2013-01-19 21:55:00,47.5,42.9,29.71,South,175,0.0,0.0,84,0.00,,,0.00,VWS V14.01,2013-01-20 03:55:00,
2013-01-19 22:00:00,47.4,42.8,29.71,South,175,0.0,0.0,84,0.00,,,0.00,VWS V14.01,2013-01-20 04:00:00,
2013-01-19 22:05:00,47.4,42.8,29.71,South,175,0.0,0.0,84,0.00,,,0.00,VWS V14.01,2013-01-20 04:05:00,
2013-01-19 22:10:00,47.3,42.7,29.71,South,175,0.0,0.0,84,0.00,,,0.00,VWS V14.01,2013-01-20 04:10:00,
2013-01-19 22:15:00,47.3,42.7,29.71,South,175,0.0,0.0,84,0.00,,,0.00,VWS V14.01,2013-01-20 04:15:00,
2013-01-19 22:20:00,47.3,42.7,29.71,South,175,0.0,0.0,84,0.00,,,0.00,VWS V14.01,2013-01-20 04:20:00,
2013-01-19 22:25:00,47.3,42.7,29.72,South,175,0.0,0.0,84,0.00,,,0.00,VWS V14.01,2013-01-20 04:25:00,
2013-01-19 22:30:00,47.4,43.1,29.72,South,175,0.0,0.0,85,0.00,,,0.00,VWS V14.01,2013-01-20 04:30:00,
2013-01-19 22:35:00,47.5,43.2,29.72,South,175,0.0,0.0,85,0.00,,,0.00,VWS V14.01,2013-01-20 04:35:00,
2013-01-19 22:41:00,47.5,42.9,29.72,South,175,0.0,0.0,84,0.00,,,0.00,VWS V14.01,2013-01-20 04:41:00,
2013-01-19 22:46:00,47.6,43.0,29.72,South,175,0.0,0.0,84,0.00,,,0.00,VWS V14.01,2013-01-20 04:46:00,
2013-01-19 22:51:00,47.7,43.1,29.72,South,175,0.0,0.0,84,0.00,,,0.00,VWS V14.01,2013-01-20 04:51:00,
2013-01-19 22:56:00,47.7,43.1,29.72,South,175,0.0,0.0,84,0.00,,,0.00,VWS V14.01,2013-01-20 04:56:00,
2013-01-19 23:00:00,47.7,43.1,29.72,South,175,0.0,1.0,84,0.00,,,0.00,VWS V14.01,2013-01-20 05:00:00,
2013-01-19 23:03:00,47.7,42.8,29.72,South,175,0.0,0.0,83,0.00,,,0.00,VWS V14.01,2013-01-20 05:03:00,
2013-01-19 23:04:00,47.7,42.8,29.72,South,175,0.0,0.0,83,0.00,,,0.00,VWS V14.01,2013-01-20 05:04:00,
2013-01-19 23:09:00,47.6,42.7,29.72,South,175,0.0,0.0,83,0.00,,,0.00,VWS V14.01,2013-01-20 05:09:00,
2013-01-19 23:14:00,47.6,42.7,29.72,South,175,0.0,1.0,83,0.00,,,0.00,VWS V14.01,2013-01-20 05:14:00,
2013-01-19 23:19:00,47.6,42.7,29.72,South,175,0.0,1.0,83,0.00,,,0.00,VWS V14.01,2013-01-20 05:19:00,
2013-01-19 23:24:00,47.5,42.6,29.72,South,175,1.0,1.0,83,0.00,,,0.00,VWS V14.01,2013-01-20 05:24:00,
2013-01-19 23:29:00,47.5,42.6,29.72,South,175,0.0,1.0,83,0.00,,,0.00,VWS V14.01,2013-01-20 05:29:00,
2013-01-19 23:34:00,47.5,42.6,29.72,South,175,0.0,2.0,83,0.00,,,0.00,VWS V14.01,2013-01-20 05:34:00,
2013-01-19 23:39:00,47.5,42.6,29.72,South,175,0.0,2.0,83,0.00,,,0.00,VWS V14.01,2013-01-20 05:39:00,
2013-01-19 23:44:00,47.4,42.5,29.72,South,175,0.0,2.0,83,0.00,,,0.00,VWS V14.01,2013-01-20 05:44:00,
2013-01-19 23:49:00,47.4,42.5,29.72,South,175,0.0,2.0,83,0.00,,,0.00,VWS V14.01,2013-01-20 05:49:00,
2013-01-19 23:54:00,47.4,42.5,29.72,South,175,0.0,0.0,83,0.00,,,0.00,VWS V14.01,2013-01-20 05:54:00,
2013-01-19 23:59:00,47.4,42.5,29.72,South,175,0.0,2.0,83,0.00,,,0.00,VWS V14.01,2013-01-20 05:59:00,